createdAt,value
2023-10-10T00:00:15.803Z,101898.03
2023-10-10T00:10:17.108Z,101892.09
2023-10-10T00:20:18.546Z,101889.53
2023-10-10T00:30:19.995Z,101893.78
2023-10-10T00:40:21.489Z,101886.97
2023-10-10T00:50:22.797Z,101880.06
2023-10-10T01:00:24.087Z,101872.81
2023-10-10T01:10:25.431Z,101858.97
2023-10-10T01:20:26.917Z,101855.34
2023-10-10T01:30:28.264Z,101841.31
2023-10-10T01:40:29.550Z,101828.28
2023-10-10T01:50:30.945Z,101815.97
2023-10-10T02:00:32.329Z,101809.06
2023-10-10T02:10:33.603Z,101800.19
2023-10-10T02:20:35.287Z,101787.22
2023-10-10T02:30:37.185Z,101771.38
2023-10-10T02:40:38.672Z,101764.25
2023-10-10T02:50:40.025Z,101780.16
2023-10-10T03:00:41.382Z,101771.44
2023-10-10T03:10:42.704Z,101772.56
2023-10-10T03:20:43.981Z,101768.97
2023-10-10T03:30:45.258Z,101767.06
2023-10-10T03:40:47.200Z,101771.38
2023-10-10T03:50:48.579Z,101771.38
2023-10-10T04:00:49.901Z,101768.81
2023-10-10T04:10:51.208Z,101766.19
2023-10-10T04:20:52.557Z,101753.16
2023-10-10T04:30:53.887Z,101751.47
2023-10-10T04:40:55.225Z,101732.19
2023-10-10T04:50:56.494Z,101735.69
2023-10-10T05:00:57.798Z,101733.91
2023-10-10T05:10:59.064Z,101720.09
2023-10-10T05:21:00.376Z,101723.59
2023-10-10T05:31:01.741Z,101716.91
2023-10-10T05:41:03.111Z,101705.50
2023-10-10T05:51:04.418Z,101699.00
2023-10-10T06:01:05.771Z,101701.66
2023-10-10T06:11:07.221Z,101698.97
2023-10-10T06:21:09.933Z,101698.91
2023-10-10T06:31:12.092Z,101696.66
2023-10-10T06:41:13.470Z,101690.22
2023-10-10T06:51:14.809Z,101690.22
2023-10-10T07:01:16.152Z,101683.59
2023-10-10T07:11:17.521Z,101689.66
2023-10-10T07:21:18.857Z,101686.13
2023-10-10T07:31:20.263Z,101678.88
2023-10-10T07:41:21.637Z,101682.59
2023-10-10T07:51:22.967Z,101680.44
2023-10-10T08:01:24.329Z,101680.44
2023-10-10T08:11:25.662Z,101682.00
2023-10-10T08:21:27.028Z,101683.44
2023-10-10T08:31:28.370Z,101681.94
2023-10-10T08:41:29.802Z,101679.13
2023-10-10T08:51:31.112Z,101678.09
2023-10-10T09:01:32.452Z,101681.88
2023-10-10T09:11:35.311Z,101679.44
2023-10-10T09:21:36.857Z,101679.63
2023-10-10T09:31:40.145Z,101681.47
2023-10-10T09:41:42.804Z,101677.00
2023-10-10T09:51:44.123Z,101684.88
2023-10-10T10:01:45.434Z,101689.00
2023-10-10T10:11:50.033Z,101681.28
2023-10-10T10:21:51.555Z,101675.97
2023-10-10T10:31:53.470Z,101655.88
2023-10-10T10:41:55.001Z,101668.25
2023-10-10T10:51:56.512Z,101656.00
2023-10-10T11:01:57.832Z,101650.81
2023-10-10T11:11:59.199Z,101637.41
2023-10-10T11:22:00.479Z,101627.69
2023-10-10T11:32:01.782Z,101616.06
2023-10-10T11:42:03.135Z,101612.56
2023-10-10T11:52:05.306Z,101595.13
2023-10-10T12:02:06.822Z,101586.38
2023-10-10T12:12:08.479Z,101588.56
2023-10-10T12:22:09.804Z,101589.53
2023-10-10T12:32:11.081Z,101565.78
2023-10-10T12:42:12.370Z,101554.00
2023-10-10T12:52:13.869Z,101551.31
2023-10-10T13:02:15.417Z,101547.75
2023-10-10T13:12:16.749Z,101549.25
2023-10-10T13:22:18.038Z,101549.03
2023-10-10T13:32:21.463Z,101543.88
2023-10-10T13:42:30.357Z,101546.31
2023-10-10T13:52:38.823Z,101534.59
2023-10-10T14:02:48.361Z,101527.81
2023-10-10T14:13:03.487Z,101519.91
2023-10-10T14:23:11.540Z,101515.53
2023-10-10T14:33:12.994Z,101505.00
2023-10-10T14:43:18.357Z,101492.53
2023-10-10T14:53:27.623Z,101482.94
2023-10-10T15:03:39.250Z,101475.44
2023-10-10T15:13:43.323Z,101474.66
2023-10-10T15:23:52.373Z,101458.94
2023-10-10T15:34:01.439Z,101454.78
2023-10-10T15:44:09.334Z,101448.84
2023-10-10T15:54:19.603Z,101444.47
2023-10-10T16:04:27.392Z,101434.97
2023-10-10T16:14:36.418Z,101426.94
2023-10-10T16:24:41.408Z,101422.59
2023-10-10T16:34:49.329Z,101426.16
2023-10-10T16:55:19.290Z,101421.41
2023-10-10T17:05:20.562Z,101411.81
2023-10-10T17:15:21.887Z,101405.75
2023-10-10T17:25:23.174Z,101395.84
2023-10-10T17:35:24.455Z,101398.75
2023-10-10T17:45:25.741Z,101380.97
2023-10-10T17:55:27.052Z,101388.38
2023-10-10T18:05:28.383Z,101382.16
2023-10-10T18:15:29.748Z,101377.50
2023-10-10T18:25:31.069Z,101362.13
2023-10-10T18:35:32.411Z,101359.34
2023-10-10T18:45:33.711Z,101361.91
2023-10-10T18:55:34.975Z,101367.41
2023-10-10T19:15:53.652Z,101338.56
2023-10-10T20:28:18.650Z,101333.22
2023-10-10T20:38:20.235Z,101334.09
2023-10-10T20:58:50.626Z,101325.34
2023-10-10T21:08:52.003Z,101324.50
2023-10-10T21:18:53.597Z,101325.47
2023-10-10T21:28:55.039Z,101326.34
2023-10-10T21:38:56.345Z,101329.69
2023-10-10T21:48:57.652Z,101312.44
2023-10-10T21:59:01.826Z,101305.31
2023-10-10T22:09:03.171Z,101308.03
2023-10-10T22:19:04.650Z,101300.16
2023-10-10T22:29:06.044Z,101303.59
2023-10-10T22:39:07.389Z,101303.81
2023-10-10T22:49:08.692Z,101307.88
2023-10-10T22:59:09.996Z,101293.91
2023-10-10T23:09:11.391Z,101293.84
2023-10-10T23:19:12.846Z,101283.31
2023-10-10T23:29:14.158Z,101280.09
2023-10-10T23:39:15.684Z,101284.31
2023-10-10T23:49:17.286Z,101286.09
2023-10-10T23:59:18.644Z,101286.09
